createdAt,value
2018-12-18T00:03:07.759Z,98227.73
2018-12-18T00:13:39.307Z,98224.27
2018-12-18T00:18:40.035Z,98230.97
2018-12-18T00:23:41.039Z,98237.55
2018-12-18T00:28:43.836Z,98230.92
2018-12-18T00:33:49.016Z,98222.80
2018-12-18T00:38:43.917Z,98215.86
2018-12-18T00:43:39.346Z,98214.20
2018-12-18T00:48:34.174Z,98204.55
2018-12-18T00:53:28.889Z,98202.89
2018-12-18T00:58:23.598Z,98203.77
2018-12-18T01:03:18.323Z,98206.73
2018-12-18T01:08:13.035Z,98215.09
2018-12-18T01:13:07.680Z,98216.34
2018-12-18T01:18:02.340Z,98213.28
2018-12-18T01:22:56.999Z,98220.39
2018-12-18T01:27:51.647Z,98224.50
2018-12-18T01:32:46.551Z,98225.03
2018-12-18T01:37:41.244Z,98232.11
2018-12-18T01:42:36.108Z,98223.20
2018-12-18T01:47:30.899Z,98225.16
2018-12-18T01:52:25.641Z,98225.03
2018-12-18T01:57:20.345Z,98214.74
2018-12-18T02:02:15.169Z,98199.84
2018-12-18T02:07:10.176Z,98192.97
2018-12-18T02:12:05.089Z,98194.27
2018-12-18T02:16:59.776Z,98187.36
2018-12-18T02:21:54.504Z,98185.91
2018-12-18T02:26:49.339Z,98183.37
2018-12-18T02:31:44.042Z,98180.54
2018-12-18T02:36:38.955Z,98179.61
2018-12-18T02:41:33.641Z,98169.77
2018-12-18T02:46:28.309Z,98163.58
2018-12-18T02:51:23.011Z,98159.66
2018-12-18T02:56:19.435Z,98153.52
2018-12-18T03:01:14.063Z,98148.97
2018-12-18T03:06:08.790Z,98146.78
2018-12-18T03:11:03.671Z,98142.10
2018-12-18T03:15:58.545Z,98127.80
2018-12-18T03:20:53.268Z,98117.11
2018-12-18T03:25:47.918Z,98112.31
2018-12-18T03:30:42.645Z,98110.61
2018-12-18T03:35:37.533Z,98106.73
2018-12-18T03:40:32.236Z,98107.14
2018-12-18T03:45:26.934Z,98104.91
2018-12-18T03:50:21.645Z,98104.16
2018-12-18T03:55:16.339Z,98104.91
2018-12-18T04:00:11.677Z,98091.63
2018-12-18T04:05:07.147Z,98080.00
2018-12-18T04:10:01.825Z,98086.91
2018-12-18T04:14:56.573Z,98081.69
2018-12-18T04:19:51.305Z,98083.78
2018-12-18T04:24:46.087Z,98083.88
2018-12-18T04:29:40.777Z,98079.82
2018-12-18T04:34:42.673Z,98084.23
2018-12-18T04:39:32.098Z,98079.77
2018-12-18T04:44:26.837Z,98071.08
2018-12-18T04:49:21.576Z,98062.93
2018-12-18T04:54:16.255Z,98068.49
2018-12-18T04:59:11.683Z,98065.82
2018-12-18T05:04:07.850Z,98068.67
2018-12-18T05:09:02.878Z,98076.42
2018-12-18T05:13:57.652Z,98079.98
2018-12-18T05:18:52.754Z,98078.66
2018-12-18T05:23:47.587Z,98080.48
2018-12-18T05:28:42.372Z,98083.06
2018-12-18T05:33:38.173Z,98091.22
2018-12-18T05:38:33.069Z,98092.81
2018-12-18T05:43:28.569Z,98086.00
2018-12-18T05:54:04.299Z,98101.11
2018-12-18T05:59:13.947Z,98110.78
2018-12-18T06:04:09.675Z,98103.70
2018-12-18T06:14:24.420Z,98098.31
2018-12-18T06:19:19.167Z,98102.09
2018-12-18T06:24:21.401Z,98106.73
2018-12-18T06:29:20.193Z,98098.09
2018-12-18T06:34:30.484Z,98085.70
2018-12-18T06:39:32.668Z,98090.02
2018-12-18T06:44:30.542Z,98092.20
2018-12-18T06:49:44.241Z,98101.66
2018-12-18T06:54:38.966Z,98107.27
2018-12-18T06:59:44.872Z,98097.33
2018-12-18T07:04:39.652Z,98108.03
2018-12-18T07:14:52.015Z,98072.69
2018-12-18T07:19:46.850Z,98067.38
2018-12-18T07:24:55.210Z,98076.20
2018-12-18T07:29:50.958Z,98073.58
2018-12-18T07:34:49.779Z,98082.57
2018-12-18T07:39:48.965Z,98072.55
2018-12-18T07:44:45.026Z,98076.63
2018-12-18T07:49:39.894Z,98071.46
2018-12-18T07:54:38.368Z,98053.10
2018-12-18T07:59:38.054Z,98051.81
2018-12-18T08:04:33.090Z,98052.11
2018-12-18T08:09:47.983Z,98047.33
2018-12-18T08:14:47.158Z,98051.27
2018-12-18T08:20:09.619Z,98043.30
2018-12-18T08:25:16.268Z,98033.16
2018-12-18T08:30:26.024Z,98036.65
2018-12-18T08:35:23.235Z,98038.79
2018-12-18T08:40:18.023Z,98026.01
2018-12-18T08:45:13.031Z,98032.67
2018-12-18T08:50:11.323Z,98026.81
2018-12-18T08:55:08.961Z,98021.17
2018-12-18T09:00:04.081Z,98023.67
2018-12-18T09:04:58.878Z,98020.98
2018-12-18T09:09:54.619Z,98017.53
2018-12-18T09:14:54.470Z,98019.86
2018-12-18T09:30:42.412Z,98012.45
2018-12-18T09:35:32.782Z,98013.75
2018-12-18T09:40:29.464Z,98006.19
2018-12-18T09:45:24.191Z,97989.52
2018-12-18T10:23:20.226Z,97964.15
2018-12-18T10:28:14.846Z,97964.25
2018-12-18T10:33:09.496Z,97965.50
2018-12-18T10:38:04.266Z,97934.33
2018-12-18T10:42:58.943Z,97909.57
2018-12-18T10:47:53.641Z,97884.16
2018-12-18T10:52:48.264Z,97854.14
2018-12-18T10:57:42.903Z,97856.73
2018-12-18T11:02:37.581Z,97857.23
2018-12-18T11:07:32.292Z,97830.27
2018-12-18T11:12:31.876Z,97807.81
2018-12-18T11:17:26.543Z,97799.78
2018-12-18T11:22:21.148Z,97789.83
2018-12-18T11:27:15.818Z,97787.73
2018-12-18T11:32:10.415Z,97774.27
2018-12-18T11:37:05.064Z,97762.75
2018-12-18T11:41:59.816Z,97757.24
2018-12-18T11:46:54.506Z,97743.70
2018-12-18T11:51:49.215Z,97720.56
2018-12-18T11:56:43.867Z,97707.36
2018-12-18T12:01:38.522Z,97736.38
2018-12-18T12:06:33.215Z,97750.00
2018-12-18T12:11:27.874Z,97750.98
2018-12-18T12:16:22.532Z,97737.58
2018-12-18T12:21:17.157Z,97711.36
2018-12-18T12:26:17.279Z,97714.50
2018-12-18T12:31:12.606Z,97706.19
2018-12-18T12:36:07.358Z,97694.14
2018-12-18T12:41:02.114Z,97695.13
2018-12-18T12:45:56.768Z,97691.12
2018-12-18T12:50:51.390Z,97677.62
2018-12-18T12:55:46.315Z,97677.45
2018-12-18T13:00:40.959Z,97667.11
2018-12-18T13:05:35.577Z,97659.48
2018-12-18T13:10:30.195Z,97651.61
2018-12-18T13:15:24.887Z,97645.93
2018-12-18T13:20:19.524Z,97642.60
2018-12-18T13:25:14.098Z,97628.86
2018-12-18T13:30:09.177Z,97628.77
2018-12-18T13:35:04.225Z,97621.09
2018-12-18T13:39:58.865Z,97609.59
2018-12-18T13:44:53.511Z,97605.47
2018-12-18T13:49:48.187Z,97611.19
2018-12-18T13:54:42.815Z,97592.28
2018-12-18T13:59:37.586Z,97596.96
2018-12-18T14:04:32.213Z,97594.52
2018-12-18T14:09:26.840Z,97596.16
2018-12-18T14:14:21.495Z,97581.98
2018-12-18T14:19:16.204Z,97580.86
2018-12-18T14:24:10.819Z,97583.48
2018-12-18T14:29:05.599Z,97570.85
2018-12-18T14:34:00.226Z,97572.12
2018-12-18T14:38:54.823Z,97574.12
2018-12-18T14:43:49.494Z,97577.69
2018-12-18T14:48:44.123Z,97582.94
2018-12-18T14:53:38.765Z,97573.75
2018-12-18T14:58:33.440Z,97574.65
2018-12-18T15:03:28.063Z,97573.69
2018-12-18T15:08:22.688Z,97583.78
2018-12-18T15:13:17.344Z,97583.30
2018-12-18T15:18:11.988Z,97576.98
2018-12-18T15:23:06.590Z,97572.59
2018-12-18T15:28:01.244Z,97570.80
2018-12-18T15:38:02.475Z,97558.70
2018-12-18T15:42:57.129Z,97563.02
2018-12-18T15:47:51.935Z,97549.89
2018-12-18T15:52:46.604Z,97555.19
2018-12-18T15:57:41.282Z,97553.53
2018-12-18T16:02:35.976Z,97550.42
2018-12-18T16:07:30.718Z,97547.65
2018-12-18T16:12:25.817Z,97549.70
2018-12-18T16:22:45.294Z,97548.86
2018-12-18T16:27:40.097Z,97541.56
2018-12-18T16:32:34.705Z,97530.25
2018-12-18T16:37:29.334Z,97518.78
2018-12-18T16:42:24.052Z,97520.59
2018-12-18T16:47:19.077Z,97515.02
2018-12-18T16:52:13.768Z,97503.34
2018-12-18T16:57:13.253Z,97497.97
2018-12-18T17:02:05.555Z,97490.41
2018-12-18T17:07:00.536Z,97485.38
2018-12-18T17:11:55.327Z,97484.55
2018-12-18T17:16:50.100Z,97480.41
2018-12-18T17:21:44.969Z,97479.69
2018-12-18T17:26:40.097Z,97478.22
2018-12-18T17:31:34.801Z,97479.64
2018-12-18T17:36:29.627Z,97477.19
2018-12-18T17:41:24.399Z,97479.77
2018-12-18T17:46:19.192Z,97482.62
2018-12-18T17:51:13.983Z,97482.15
2018-12-18T17:56:08.724Z,97492.42
2018-12-18T18:01:03.563Z,97491.64
2018-12-18T18:05:58.223Z,97496.54
2018-12-18T18:10:53.250Z,97501.78
2018-12-18T18:15:48.008Z,97499.70
2018-12-18T18:20:42.745Z,97496.70
2018-12-18T18:25:41.059Z,97494.09
2018-12-18T18:30:35.839Z,97487.77
2018-12-18T18:35:30.605Z,97489.13
2018-12-18T18:40:25.659Z,97480.78
2018-12-18T18:45:20.526Z,97480.86
2018-12-18T18:50:15.623Z,97451.47
2018-12-18T18:55:10.417Z,97458.45
2018-12-18T19:00:06.902Z,97450.95
2018-12-18T19:05:01.602Z,97441.80
2018-12-18T19:09:56.277Z,97438.42
2018-12-18T19:14:50.951Z,97434.92
2018-12-18T19:19:45.569Z,97437.19
2018-12-18T19:24:46.555Z,97421.30
2018-12-18T19:29:41.774Z,97418.46
2018-12-18T19:34:37.048Z,97421.24
2018-12-18T19:39:35.370Z,97415.12
2018-12-18T19:44:35.181Z,97418.46
2018-12-18T19:49:40.289Z,97410.42
2018-12-18T19:54:36.631Z,97421.69
2018-12-18T19:59:31.365Z,97428.20
2018-12-18T20:04:35.488Z,97423.04
2018-12-18T20:09:35.048Z,97419.75
2018-12-18T20:14:29.872Z,97409.78
2018-12-18T20:19:24.668Z,97414.36
2018-12-18T20:24:19.323Z,97411.89
2018-12-18T20:29:15.980Z,97418.94
2018-12-18T20:34:10.754Z,97420.34
2018-12-18T20:39:09.305Z,97416.02
2018-12-18T20:44:04.137Z,97408.02
2018-12-18T20:48:58.967Z,97388.20
2018-12-18T20:53:53.770Z,97401.44
2018-12-18T20:58:51.325Z,97400.09
2018-12-18T21:03:45.908Z,97393.38
2018-12-18T21:08:40.557Z,97385.52
2018-12-18T21:13:35.263Z,97368.39
2018-12-18T21:18:30.136Z,97390.81
2018-12-18T21:23:24.803Z,97388.34
2018-12-18T21:28:20.809Z,97381.65
2018-12-18T21:33:15.447Z,97383.78
2018-12-18T21:38:10.241Z,97388.23
2018-12-18T21:43:06.024Z,97389.07
2018-12-18T21:48:00.744Z,97381.37
2018-12-18T21:52:55.355Z,97378.09
2018-12-18T21:57:50.195Z,97387.66
2018-12-18T22:02:44.991Z,97371.25
2018-12-18T22:07:39.603Z,97361.13
2018-12-18T22:12:34.257Z,97356.07
2018-12-18T22:26:50.143Z,97364.33
2018-12-18T22:31:44.817Z,97367.30
2018-12-18T22:36:39.508Z,97373.32
2018-12-18T22:41:34.138Z,97371.83
2018-12-18T22:46:28.794Z,97380.86
2018-12-18T22:51:23.565Z,97383.05
2018-12-18T22:56:18.230Z,97376.61
2018-12-18T23:06:38.761Z,97376.53
2018-12-18T23:11:33.464Z,97377.06
2018-12-18T23:16:28.158Z,97374.73
2018-12-18T23:21:22.809Z,97378.27
2018-12-18T23:26:17.477Z,97371.50
2018-12-18T23:31:12.114Z,97357.62
2018-12-18T23:36:06.758Z,97362.84
2018-12-18T23:41:01.509Z,97361.30
2018-12-18T23:45:56.232Z,97359.27
2018-12-18T23:50:50.865Z,97352.61
2018-12-18T23:55:45.540Z,97352.20
